Time;durP1;ratioP1;P1;durP2;ratioP2;P2;SDS_P1;SDS_P2;PMS_P1;PMS_P2;Temp;Humidity;BMP_temperature;BMP_pressure;BME280_temperature;BME280_humidity;BME280_pressure;Samples;Min_cycle;Max_cycle;Signal;HPM_P1;HPM_P2
2022/04/30 00:00:08;;;;;;;12.67;10.27;;;10.00;99.90;;;;;;5049674;28;20257;-65
2022/04/30 00:02:33;;;;;;;11.47;9.97;;;10.00;99.90;;;;;;5051039;28;20167;-66
2022/04/30 00:04:59;;;;;;;9.93;9.00;;;10.00;99.90;;;;;;5050389;28;20267;-65
2022/04/30 00:07:25;;;;;;;12.67;9.50;;;9.90;99.90;;;;;;5051011;28;20169;-65
2022/04/30 00:09:50;;;;;;;10.83;9.53;;;9.80;99.90;;;;;;5050735;28;20655;-65
2022/04/30 00:12:16;;;;;;;11.27;8.70;;;9.80;99.90;;;;;;5050766;28;20174;-65
2022/04/30 00:14:42;;;;;;;10.80;9.47;;;9.70;99.90;;;;;;5049089;28;20340;-65
2022/04/30 00:17:09;;;;;;;11.87;9.83;;;9.70;99.90;;;;;;5050817;28;20690;-65
2022/04/30 00:19:35;;;;;;;10.30;9.30;;;9.60;99.90;;;;;;5050628;28;20190;-65
2022/04/30 00:22:00;;;;;;;10.97;8.93;;;9.60;99.90;;;;;;5054798;28;20178;-65
2022/04/30 00:24:26;;;;;;;10.27;9.03;;;9.60;99.90;;;;;;5054763;28;20198;-65
2022/04/30 00:26:53;;;;;;;12.03;9.00;;;9.50;99.90;;;;;;5054540;28;20179;-65
2022/04/30 00:29:19;;;;;;;14.87;9.80;;;9.40;99.90;;;;;;5055023;28;20246;-65
2022/04/30 00:31:45;;;;;;;8.97;8.27;;;9.40;99.90;;;;;;5054669;28;20252;-65
2022/04/30 00:34:10;;;;;;;10.40;9.27;;;9.30;99.90;;;;;;5054703;28;20194;-65
2022/04/30 00:36:36;;;;;;;11.07;8.80;;;9.20;99.90;;;;;;5054084;28;20186;-65
2022/04/30 00:39:03;;;;;;;10.23;9.23;;;9.20;99.90;;;;;;5055004;28;20209;-65
2022/04/30 00:41:32;;;;;;;9.83;8.83;;;9.10;99.90;;;;;;5054381;28;20257;-66
2022/04/30 00:43:58;;;;;;;11.20;8.93;;;9.00;99.90;;;;;;5054619;28;20730;-65
2022/04/30 00:46:24;;;;;;;14.03;9.20;;;9.00;99.90;;;;;;5054061;28;20578;-65
2022/04/30 00:48:51;;;;;;;10.23;9.00;;;9.00;99.90;;;;;;5054749;28;20170;-65
2022/04/30 00:51:19;;;;;;;10.17;9.17;;;9.00;99.90;;;;;;5054212;28;20173;-65
2022/04/30 00:53:50;;;;;;;11.13;9.47;;;9.00;99.90;;;;;;5065904;28;20202;-65
2022/04/30 00:56:21;;;;;;;10.53;9.53;;;8.90;99.90;;;;;;5074196;28;20223;-65
2022/04/30 00:58:48;;;;;;;10.70;9.63;;;9.00;99.90;;;;;;5065971;28;20232;-65
2022/04/30 01:01:19;;;;;;;12.60;10.47;;;9.00;99.90;;;;;;5054868;28;20192;-65
2022/04/30 01:03:44;;;;;;;10.27;9.27;;;9.00;99.90;;;;;;5052603;28;20207;-65
2022/04/30 01:06:12;;;;;;;14.70;9.60;;;8.90;99.90;;;;;;5053941;28;20170;-65
2022/04/30 01:08:38;;;;;;;10.53;9.27;;;8.90;99.90;;;;;;5052485;28;20171;-65
2022/04/30 01:11:05;;;;;;;13.33;10.77;;;8.90;99.90;;;;;;5054253;28;20238;-65
2022/04/30 01:13:35;;;;;;;11.63;10.07;;;8.80;99.90;;;;;;5053628;28;20181;-65
2022/04/30 01:16:06;;;;;;;10.83;9.80;;;8.80;99.90;;;;;;5053918;28;20171;-65
2022/04/30 01:18:36;;;;;;;11.37;9.97;;;8.70;99.90;;;;;;5053685;28;20628;-65
2022/04/30 01:21:10;;;;;;;10.90;9.80;;;8.60;99.90;;;;;;5053993;28;20778;-65
2022/04/30 01:23:36;;;;;;;14.20;10.47;;;8.50;99.90;;;;;;5053643;28;20206;-65
2022/04/30 01:26:03;;;;;;;12.07;10.87;;;8.40;99.90;;;;;;5052364;28;20577;-65
2022/04/30 01:28:29;;;;;;;12.40;10.47;;;8.30;99.90;;;;;;5053509;28;20228;-65
2022/04/30 01:30:55;;;;;;;11.87;9.97;;;8.30;99.90;;;;;;5053603;28;20246;-65
2022/04/30 01:38:49;;;;;;;12.87;11.10;;;8.20;99.90;;;;;;5053648;28;20209;-65
2022/04/30 01:41:15;;;;;;;15.47;10.70;;;8.20;99.90;;;;;;5054628;28;20214;-65
2022/04/30 01:43:42;;;;;;;15.57;11.83;;;8.10;99.90;;;;;;5054070;28;20210;-65
2022/04/30 01:46:08;;;;;;;20.03;10.17;;;8.00;99.90;;;;;;5054026;28;20171;-65
2022/04/30 01:48:35;;;;;;;13.37;10.60;;;8.10;99.90;;;;;;5054030;28;20174;-66
2022/04/30 01:51:01;;;;;;;12.53;11.27;;;8.00;99.90;;;;;;5052469;28;20198;-66
2022/04/30 01:53:26;;;;;;;13.47;11.30;;;8.00;99.90;;;;;;5053731;28;20171;-66
2022/04/30 01:55:52;;;;;;;11.40;10.27;;;7.90;99.90;;;;;;5053289;28;20585;-65
2022/04/30 01:58:19;;;;;;;11.50;10.40;;;7.90;99.90;;;;;;5053177;28;20257;-65
2022/04/30 02:00:45;;;;;;;12.13;9.90;;;7.90;99.90;;;;;;5053038;28;20190;-65
2022/04/30 02:03:15;;;;;;;11.50;10.33;;;7.80;99.90;;;;;;5053002;28;20179;-65
2022/04/30 02:05:41;;;;;;;12.10;10.87;;;7.70;99.90;;;;;;5052593;28;20699;-65
2022/04/30 02:08:10;;;;;;;12.37;10.47;;;7.70;99.90;;;;;;5051677;28;20171;-65
2022/04/30 02:10:38;;;;;;;11.03;10.00;;;7.60;99.90;;;;;;5051207;28;20218;-65
2022/04/30 02:13:06;;;;;;;12.30;11.00;;;7.60;99.90;;;;;;5053170;28;20194;-65
2022/04/30 02:15:33;;;;;;;14.00;10.80;;;7.60;99.90;;;;;;5052015;28;20222;-65
2022/04/30 02:18:00;;;;;;;12.30;11.10;;;7.50;99.90;;;;;;5052851;28;20219;-65
2022/04/30 02:20:29;;;;;;;11.67;9.97;;;7.50;99.90;;;;;;5052722;28;20531;-64
2022/04/30 02:22:57;;;;;;;12.00;10.73;;;7.50;99.90;;;;;;5052651;28;20716;-65
2022/04/30 02:25:24;;;;;;;15.73;11.03;;;7.40;99.90;;;;;;5052359;28;20210;-65
2022/04/30 02:27:52;;;;;;;17.00;10.70;;;7.40;99.90;;;;;;5052522;28;20186;-64
2022/04/30 02:30:22;;;;;;;11.40;10.20;;;7.30;99.90;;;;;;5051416;28;20198;-64
2022/04/30 02:32:53;;;;;;;13.53;11.00;;;7.30;99.90;;;;;;5052167;28;20232;-65
2022/04/30 02:35:28;;;;;;;11.77;10.57;;;7.30;99.90;;;;;;5052291;28;20500;-65
2022/04/30 02:37:56;;;;;;;16.33;11.67;;;7.30;99.90;;;;;;5052500;28;20213;-65
2022/04/30 02:40:24;;;;;;;13.90;10.80;;;7.20;99.90;;;;;;5052827;28;20182;-64
2022/04/30 02:42:51;;;;;;;12.83;11.00;;;7.10;99.90;;;;;;5051773;28;20388;-65
2022/04/30 02:45:18;;;;;;;12.07;10.87;;;7.10;99.90;;;;;;5052078;28;20199;-65
2022/04/30 02:47:46;;;;;;;12.13;11.07;;;7.10;99.90;;;;;;5052061;28;20182;-65
2022/04/30 02:50:14;;;;;;;12.50;11.23;;;7.10;99.90;;;;;;5052447;28;20171;-64
2022/04/30 02:52:43;;;;;;;12.77;10.97;;;7.00;99.90;;;;;;5051744;28;20214;-65
2022/04/30 02:55:10;;;;;;;14.33;11.43;;;7.00;99.90;;;;;;5051938;28;20195;-65
2022/04/30 03:00:28;;;;;;;12.70;11.50;;;6.90;99.90;;;;;;5052041;28;20598;-65
2022/04/30 03:02:54;;;;;;;12.63;11.40;;;6.90;99.90;;;;;;5050527;28;20540;-64
2022/04/30 03:05:20;;;;;;;13.47;12.13;;;6.90;99.90;;;;;;5051475;28;20210;-65
2022/04/30 03:07:47;;;;;;;14.53;11.03;;;6.80;99.90;;;;;;5051917;28;20862;-65
2022/04/30 03:10:13;;;;;;;12.97;11.73;;;6.80;99.90;;;;;;5051701;28;20210;-65
2022/04/30 03:12:39;;;;;;;11.97;10.87;;;6.70;99.90;;;;;;5050221;28;20722;-65
2022/04/30 03:15:06;;;;;;;13.77;11.40;;;6.70;99.90;;;;;;5051438;28;20190;-65
2022/04/30 03:23:00;;;;;;;12.80;11.60;;;6.70;99.90;;;;;;5052105;28;20606;-65
2022/04/30 03:25:25;;;;;;;15.73;12.47;;;6.70;99.90;;;;;;5050999;28;20275;-65
2022/04/30 03:27:51;;;;;;;14.43;13.00;;;6.70;99.90;;;;;;5051727;28;20269;-65
2022/04/30 03:30:17;;;;;;;14.87;11.97;;;6.60;99.90;;;;;;5051364;28;20197;-64
2022/04/30 03:32:42;;;;;;;14.50;11.33;;;6.60;99.90;;;;;;5051385;28;20182;-65
2022/04/30 03:35:11;;;;;;;13.90;11.87;;;6.60;99.90;;;;;;5051406;28;20213;-65
2022/04/30 03:37:37;;;;;;;16.10;12.27;;;6.60;99.90;;;;;;5051450;28;20190;-65
2022/04/30 03:40:04;;;;;;;12.80;10.20;;;6.60;99.90;;;;;;5051224;28;20187;-66
2022/04/30 03:42:30;;;;;;;10.90;9.83;;;6.50;99.90;;;;;;5051216;28;20579;-65
2022/04/30 03:44:56;;;;;;;11.80;10.60;;;6.50;99.90;;;;;;5050714;28;20210;-65
2022/04/30 03:47:22;;;;;;;10.77;9.70;;;6.50;99.90;;;;;;5051383;28;20171;-65
2022/04/30 03:49:48;;;;;;;11.10;10.00;;;6.50;99.90;;;;;;5050870;28;20178;-63
2022/04/30 03:52:14;;;;;;;18.00;10.10;;;6.40;99.90;;;;;;5051945;28;20175;-64
2022/04/30 03:54:40;;;;;;;12.33;10.67;;;6.40;99.90;;;;;;5049440;28;20226;-64
2022/04/30 03:57:06;;;;;;;11.60;9.60;;;6.30;99.90;;;;;;5051308;28;20198;-65
2022/04/30 03:59:32;;;;;;;12.77;9.57;;;6.30;99.90;;;;;;5050873;28;20190;-65
2022/04/30 04:01:59;;;;;;;11.73;10.57;;;6.30;99.90;;;;;;5051028;28;20186;-65
2022/04/30 04:04:25;;;;;;;12.47;10.00;;;6.30;99.90;;;;;;5050726;28;20245;-64
2022/04/30 04:06:53;;;;;;;11.57;10.13;;;6.20;99.90;;;;;;5050773;28;20175;-66
2022/04/30 04:09:18;;;;;;;13.70;10.17;;;6.20;99.90;;;;;;5050698;28;20175;-65
2022/04/30 04:11:44;;;;;;;11.53;10.40;;;6.20;99.90;;;;;;5050980;28;20250;-65
2022/04/30 04:19:38;;;;;;;11.17;9.27;;;6.20;99.90;;;;;;5051093;28;20244;-65
2022/04/30 04:22:04;;;;;;;12.37;9.57;;;6.20;99.90;;;;;;5051236;28;20174;-66
2022/04/30 04:27:14;;;;;;;12.50;10.03;;;6.20;99.90;;;;;;5050972;28;20177;-66
2022/04/30 04:29:40;;;;;;;11.27;10.13;;;6.20;99.90;;;;;;5049952;28;20221;-66
2022/04/30 04:32:06;;;;;;;12.37;9.73;;;6.20;99.90;;;;;;5050968;28;20175;-66
2022/04/30 04:34:31;;;;;;;13.50;10.40;;;6.20;99.90;;;;;;5049999;28;20210;-65
2022/04/30 04:36:57;;;;;;;15.50;11.13;;;6.20;99.90;;;;;;5050775;28;20613;-65
2022/04/30 04:39:22;;;;;;;13.50;10.20;;;6.20;99.90;;;;;;5050556;28;20194;-64
2022/04/30 04:41:48;;;;;;;14.30;10.93;;;6.20;99.90;;;;;;5050769;28;20183;-65
2022/04/30 04:44:14;;;;;;;12.87;11.13;;;6.20;99.90;;;;;;5050406;28;20214;-66
2022/04/30 04:46:40;;;;;;;11.97;10.77;;;6.30;99.90;;;;;;5050406;28;20167;-65
2022/04/30 04:49:07;;;;;;;11.07;10.10;;;6.30;99.90;;;;;;5050508;28;20179;-65
2022/04/30 04:51:36;;;;;;;14.00;11.03;;;6.30;99.90;;;;;;5050314;28;20179;-65
2022/04/30 04:54:02;;;;;;;12.60;10.53;;;6.40;99.90;;;;;;5050143;28;20207;-65
2022/04/30 04:56:29;;;;;;;12.30;11.03;;;6.40;99.90;;;;;;5062134;28;20228;-65
2022/04/30 04:58:55;;;;;;;15.57;10.47;;;6.50;99.90;;;;;;5070615;28;20178;-65
2022/04/30 05:01:21;;;;;;;13.17;10.40;;;6.50;99.90;;;;;;5070723;28;20285;-64
2022/04/30 05:03:46;;;;;;;14.70;10.77;;;6.50;99.90;;;;;;5065527;28;20297;-66
2022/04/30 05:06:12;;;;;;;17.73;10.87;;;6.60;99.90;;;;;;5052208;28;20167;-65
2022/04/30 05:08:38;;;;;;;13.43;10.90;;;6.70;99.90;;;;;;5053707;28;20175;-65
2022/04/30 05:11:03;;;;;;;11.70;9.70;;;6.70;99.90;;;;;;5054266;28;20546;-65
2022/04/30 05:13:29;;;;;;;11.90;10.70;;;6.80;99.90;;;;;;5053834;28;20644;-64
2022/04/30 05:15:54;;;;;;;11.60;10.33;;;6.80;99.90;;;;;;5053830;28;20167;-64
2022/04/30 05:18:20;;;;;;;12.10;10.80;;;6.80;99.90;;;;;;5053804;28;20186;-65
2022/04/30 05:20:46;;;;;;;12.13;11.03;;;6.90;99.90;;;;;;5053759;28;20167;-64
2022/04/30 05:23:11;;;;;;;11.80;10.80;;;6.90;99.90;;;;;;5053827;28;20182;-63
2022/04/30 05:25:40;;;;;;;12.40;10.57;;;6.90;99.90;;;;;;5053011;28;20213;-64
2022/04/30 05:28:07;;;;;;;11.53;10.03;;;7.00;99.90;;;;;;5052569;28;20597;-65
2022/04/30 05:30:33;;;;;;;11.20;10.10;;;7.20;99.90;;;;;;5053732;28;20225;-64
2022/04/30 05:32:59;;;;;;;10.63;9.57;;;7.20;99.90;;;;;;5053544;28;20182;-65
2022/04/30 05:35:25;;;;;;;12.43;11.13;;;7.40;99.90;;;;;;5053200;28;20202;-65
2022/04/30 05:37:50;;;;;;;13.63;10.70;;;7.50;99.90;;;;;;5052373;28;20189;-64
2022/04/30 05:40:16;;;;;;;12.07;10.00;;;7.60;99.90;;;;;;5053911;28;20178;-65
2022/04/30 05:42:41;;;;;;;12.03;9.77;;;7.60;99.90;;;;;;5053189;28;20652;-65
2022/04/30 05:45:08;;;;;;;12.63;9.50;;;7.70;99.90;;;;;;5052804;28;20206;-64
2022/04/30 05:47:33;;;;;;;11.53;10.40;;;7.70;99.90;;;;;;5053485;28;20249;-65
2022/04/30 05:49:59;;;;;;;10.73;9.73;;;7.70;99.90;;;;;;5051441;28;20278;-65
2022/04/30 05:52:25;;;;;;;12.50;11.30;;;7.90;99.90;;;;;;5051879;28;20613;-64
2022/04/30 05:54:50;;;;;;;14.13;11.33;;;7.90;99.90;;;;;;5052690;28;20207;-64
2022/04/30 05:57:16;;;;;;;12.67;9.27;;;7.90;99.90;;;;;;5053213;28;20211;-65
2022/04/30 05:59:42;;;;;;;13.00;9.40;;;8.10;99.90;;;;;;5052795;28;20183;-64
2022/04/30 06:02:07;;;;;;;11.17;10.17;;;8.30;99.90;;;;;;5052817;28;20194;-66
2022/04/30 06:04:33;;;;;;;9.70;8.80;;;8.40;99.90;;;;;;5051017;28;20559;-65
2022/04/30 06:06:59;;;;;;;11.83;8.67;;;8.70;99.90;;;;;;5052898;28;20245;-66
2022/04/30 06:09:25;;;;;;;8.70;7.90;;;9.10;99.90;;;;;;5052803;28;20205;-66
2022/04/30 06:11:51;;;;;;;8.50;7.63;;;9.60;99.90;;;;;;5052773;28;20174;-65
2022/04/30 06:14:17;;;;;;;9.17;7.60;;;10.10;99.90;;;;;;5052362;28;20680;-65
2022/04/30 06:16:42;;;;;;;10.17;7.57;;;10.30;99.90;;;;;;5051777;28;20168;-66
2022/04/30 06:19:08;;;;;;;9.20;7.50;;;10.70;99.90;;;;;;5050855;28;20182;-65
2022/04/30 06:21:33;;;;;;;11.67;7.57;;;10.90;99.90;;;;;;5052705;28;20174;-65
2022/04/30 06:23:59;;;;;;;10.83;8.57;;;11.10;99.90;;;;;;5052350;28;20293;-67
2022/04/30 06:26:25;;;;;;;8.43;7.53;;;11.30;99.90;;;;;;5052542;28;20178;-66
2022/04/30 06:28:50;;;;;;;8.93;7.63;;;11.10;99.90;;;;;;5052079;28;20187;-66
2022/04/30 06:31:16;;;;;;;7.97;7.07;;;11.10;99.90;;;;;;5051345;28;20588;-66
2022/04/30 06:33:41;;;;;;;8.07;7.47;;;11.20;99.90;;;;;;5051904;28;20273;-67
2022/04/30 06:36:07;;;;;;;9.40;7.50;;;11.20;99.90;;;;;;5052309;28;20194;-66
2022/04/30 06:38:33;;;;;;;8.53;7.57;;;11.10;99.90;;;;;;5052186;28;20185;-65
2022/04/30 06:40:59;;;;;;;9.13;7.07;;;11.00;99.90;;;;;;5052272;28;20250;-66
2022/04/30 06:43:24;;;;;;;9.40;8.17;;;10.70;99.90;;;;;;5052276;28;20175;-65
2022/04/30 06:45:50;;;;;;;8.87;7.97;;;10.80;99.90;;;;;;5051886;28;20203;-65
2022/04/30 06:48:15;;;;;;;8.87;7.97;;;10.60;99.90;;;;;;5051897;28;20175;-66
2022/04/30 06:50:41;;;;;;;11.03;7.93;;;10.60;99.90;;;;;;5051872;28;20544;-64
2022/04/30 06:58:44;;;;;;;12.03;7.30;;;11.20;99.90;;;;;;5051702;28;20571;-66
2022/04/30 07:04:01;;;;;;;8.90;6.90;;;12.20;99.90;;;;;;5047611;28;20214;-66
2022/04/30 07:06:28;;;;;;;11.97;7.23;;;12.70;99.90;;;;;;5051418;28;20178;-65
2022/04/30 07:08:53;;;;;;;10.73;7.23;;;13.00;99.90;;;;;;5051442;28;20257;-66
2022/04/30 07:11:19;;;;;;;8.47;7.07;;;13.00;99.90;;;;;;5051963;28;20255;-66
2022/04/30 07:13:44;;;;;;;6.90;6.20;;;13.10;99.90;;;;;;5051317;28;20636;-67
2022/04/30 07:16:10;;;;;;;7.97;7.17;;;13.10;99.90;;;;;;5051458;28;20171;-66
2022/04/30 07:18:35;;;;;;;9.40;6.73;;;13.10;99.90;;;;;;5051555;28;20167;-66
2022/04/30 07:21:01;;;;;;;12.00;6.50;;;13.00;99.90;;;;;;5051528;28;20205;-66
2022/04/30 07:23:27;;;;;;;9.53;6.07;;;12.60;99.90;;;;;;5051195;28;20210;-66
2022/04/30 07:25:52;;;;;;;8.73;6.80;;;12.50;99.90;;;;;;5050012;28;20617;-68
2022/04/30 07:28:18;;;;;;;9.13;6.43;;;12.50;99.90;;;;;;5051336;28;20216;-66
2022/04/30 07:30:44;;;;;;;10.10;7.27;;;12.80;99.90;;;;;;5050898;28;20175;-66
2022/04/30 07:33:09;;;;;;;6.60;6.00;;;12.70;99.90;;;;;;5051509;28;20199;-66
2022/04/30 07:35:35;;;;;;;6.80;6.13;;;12.30;99.90;;;;;;5050408;28;20308;-65
2022/04/30 07:38:01;;;;;;;7.90;7.23;;;12.10;99.90;;;;;;5050157;28;20174;-66
2022/04/30 07:40:26;;;;;;;7.67;6.93;;;12.20;99.90;;;;;;5050943;28;20182;-65
2022/04/30 07:42:52;;;;;;;7.57;6.77;;;12.40;99.90;;;;;;5051069;28;20174;-66
2022/04/30 07:45:18;;;;;;;8.70;6.80;;;12.80;99.90;;;;;;5050864;28;20714;-66
2022/04/30 07:47:43;;;;;;;7.40;6.80;;;13.40;99.90;;;;;;5051060;28;20426;-66
2022/04/30 07:50:10;;;;;;;8.33;7.53;;;13.30;99.90;;;;;;5051208;28;20293;-66
2022/04/30 07:52:35;;;;;;;10.70;6.60;;;13.30;99.90;;;;;;5051036;28;20167;-65
2022/04/30 07:55:02;;;;;;;8.90;6.67;;;13.30;99.90;;;;;;5050612;28;20708;-67
2022/04/30 07:57:28;;;;;;;7.20;6.33;;;13.30;99.90;;;;;;5050727;28;20178;-65
2022/04/30 07:59:54;;;;;;;13.10;8.83;;;13.40;99.90;;;;;;5051070;28;20548;-66
2022/04/30 08:02:20;;;;;;;7.80;7.00;;;13.60;99.90;;;;;;5050830;28;20261;-66
2022/04/30 08:04:45;;;;;;;7.10;6.53;;;13.80;99.90;;;;;;5050679;28;20209;-66
2022/04/30 08:07:11;;;;;;;8.17;7.40;;;13.90;99.90;;;;;;5050734;28;20178;-66
2022/04/30 08:09:37;;;;;;;8.30;7.57;;;13.50;99.90;;;;;;5050859;28;20252;-66
2022/04/30 08:12:03;;;;;;;8.03;7.23;;;13.30;99.90;;;;;;5050543;28;20254;-65
2022/04/30 08:14:29;;;;;;;8.00;6.77;;;13.10;99.90;;;;;;5050588;28;20694;-63
2022/04/30 08:16:54;;;;;;;6.87;6.23;;;13.50;99.90;;;;;;5050602;28;20175;-66
2022/04/30 08:19:20;;;;;;;7.77;5.67;;;13.90;99.90;;;;;;5050882;28;20205;-66
2022/04/30 08:21:48;;;;;;;6.93;6.10;;;14.50;99.90;;;;;;5050648;28;20644;-65
2022/04/30 08:24:14;;;;;;;6.53;5.93;;;14.60;99.90;;;;;;5050784;28;20683;-65
2022/04/30 08:26:40;;;;;;;6.90;6.00;;;14.60;99.90;;;;;;5048919;28;20200;-66
2022/04/30 08:29:06;;;;;;;6.90;5.90;;;14.50;99.90;;;;;;5050779;28;20178;-66
2022/04/30 08:31:32;;;;;;;6.93;5.87;;;14.30;99.90;;;;;;5050573;28;20265;-66
2022/04/30 08:33:58;;;;;;;7.10;5.90;;;14.20;99.90;;;;;;5049371;28;20689;-66
2022/04/30 08:36:24;;;;;;;6.97;6.00;;;14.00;99.90;;;;;;5050207;28;20195;-66
2022/04/30 08:38:49;;;;;;;6.87;6.27;;;14.30;99.90;;;;;;5050511;28;20269;-65
2022/04/30 08:41:16;;;;;;;6.97;6.20;;;14.40;99.90;;;;;;5048019;28;20534;-66
2022/04/30 08:43:47;;;;;;;6.27;5.40;;;14.80;99.90;;;;;;5054476;28;20182;-66
2022/04/30 08:46:13;;;;;;;6.33;5.20;;;15.30;99.90;;;;;;5054063;28;20224;-66
2022/04/30 08:48:40;;;;;;;5.30;4.90;;;16.10;99.90;;;;;;5054535;28;20171;-66
2022/04/30 08:51:05;;;;;;;4.63;4.23;;;16.40;99.90;;;;;;5054075;28;20648;-66
2022/04/30 08:53:31;;;;;;;5.00;4.50;;;16.70;99.90;;;;;;5054227;28;20179;-66
2022/04/30 08:55:57;;;;;;;4.90;4.50;;;17.00;99.90;;;;;;5053621;28;20616;-67
2022/04/30 08:58:22;;;;;;;5.57;4.60;;;17.40;99.90;;;;;;5071295;28;20261;-65
2022/04/30 09:00:48;;;;;;;4.80;4.30;;;17.60;99.90;;;;;;5074003;28;20209;-66
2022/04/30 09:03:21;;;;;;;6.27;4.40;;;17.50;99.90;;;;;;5063873;28;20183;-67
2022/04/30 09:05:48;;;;;;;5.33;4.60;;;17.60;99.90;;;;;;5054103;28;20207;-65
2022/04/30 09:08:16;;;;;;;5.27;4.60;;;17.80;99.90;;;;;;5054149;28;20667;-65
2022/04/30 09:10:42;;;;;;;4.80;4.40;;;18.00;99.90;;;;;;5052836;28;20174;-66
2022/04/30 09:13:16;;;;;;;6.97;4.63;;;18.30;99.90;;;;;;5053867;28;20171;-66
2022/04/30 09:15:45;;;;;;;5.60;4.87;;;18.30;99.90;;;;;;5053592;28;20178;-64
2022/04/30 09:18:12;;;;;;;6.93;5.60;;;18.70;99.90;;;;;;5053272;28;20186;-65
2022/04/30 09:20:42;;;;;;;6.10;5.60;;;18.60;99.90;;;;;;5054308;28;20167;-66
2022/04/30 09:23:09;;;;;;;7.73;6.80;;;18.00;99.90;;;;;;5053683;28;20641;-65
2022/04/30 09:25:34;;;;;;;9.33;6.10;;;17.90;99.90;;;;;;5036102;28;20203;-64
2022/04/30 09:28:00;;;;;;;5.57;4.93;;;17.50;99.90;;;;;;5039383;28;20541;-65
2022/04/30 09:30:32;;;;;;;7.93;5.50;;;17.40;99.90;;;;;;5054004;28;20220;-66
2022/04/30 09:33:05;;;;;;;5.70;5.20;;;17.40;99.90;;;;;;5054145;28;20167;-65
2022/04/30 09:38:18;;;;;;;5.57;5.13;;;16.90;99.90;;;;;;5034725;28;20205;-64
2022/04/30 09:40:57;;;;;;;6.40;5.40;;;17.20;99.90;;;;;;5033653;28;20163;-64
2022/04/30 09:43:29;;;;;;;5.90;5.40;;;17.00;99.90;;;;;;5034351;28;20266;-65
2022/04/30 09:45:59;;;;;;;7.70;5.83;;;17.00;99.90;;;;;;5033752;28;20199;-64
2022/04/30 09:54:03;;;;;;;5.77;5.17;;;17.30;99.90;;;;;;5050166;28;20225;-64
2022/04/30 09:56:37;;;;;;;6.03;5.47;;;17.60;99.90;;;;;;5037616;28;20735;-64
2022/04/30 09:59:08;;;;;;;5.30;4.90;;;17.60;99.90;;;;;;5034488;28;20176;-64
2022/04/30 10:01:35;;;;;;;5.07;4.63;;;17.90;99.90;;;;;;5034462;28;20301;-64
2022/04/30 10:04:09;;;;;;;6.43;4.70;;;18.40;99.90;;;;;;5034019;28;20348;-65
2022/04/30 10:06:39;;;;;;;4.63;4.30;;;18.70;99.90;;;;;;5033652;28;20199;-64
2022/04/30 10:09:27;;;;;;;7.13;4.83;;;19.10;99.90;;;;;;5033474;28;20189;-66
2022/04/30 10:12:16;;;;;;;8.03;5.73;;;19.00;99.90;;;;;;5033584;28;20194;-66
2022/04/30 10:14:51;;;;;;;5.63;5.10;;;19.70;99.90;;;;;;5033747;28;20645;-65
2022/04/30 10:17:17;;;;;;;5.37;4.83;;;19.70;99.90;;;;;;5033773;28;20194;-66
2022/04/30 10:20:19;;;;;;;5.90;5.30;;;19.30;99.90;;;;;;5033483;28;20191;-63
2022/04/30 10:22:53;;;;;;;7.57;4.80;;;19.20;99.90;;;;;;5032319;28;20599;-65
2022/04/30 10:25:46;;;;;;;5.85;5.28;;;19.40;99.90;;;;;;5032867;28;20273;-64
2022/04/30 10:28:14;;;;;;;5.47;4.97;;;20.10;99.90;;;;;;5033346;28;20179;-65
2022/04/30 10:30:41;;;;;;;5.43;4.97;;;20.20;99.90;;;;;;5033002;28;20179;-64
2022/04/30 10:33:10;;;;;;;5.73;5.20;;;20.00;99.90;;;;;;5032809;28;20266;-64
2022/04/30 10:35:36;;;;;;;6.03;5.50;;;19.50;99.90;;;;;;5032573;28;20211;-65
2022/04/30 10:38:18;;;;;;;5.43;4.93;;;19.60;99.90;;;;;;5033363;28;20213;-65
2022/04/30 10:41:00;;;;;;;6.83;5.40;;;19.80;99.90;;;;;;5032655;28;20183;-64
2022/04/30 10:43:34;;;;;;;7.63;5.28;;;19.70;99.90;;;;;;5031730;28;20637;-65
2022/04/30 10:46:01;;;;;;;6.30;5.70;;;19.70;99.90;;;;;;5032240;28;20211;-65
2022/04/30 10:48:28;;;;;;;5.70;5.27;;;19.30;99.90;;;;;;5031740;28;20648;-64
2022/04/30 10:51:14;;;;;;;8.87;5.70;;;18.70;99.90;;;;;;5032324;28;20175;-64
2022/04/30 10:53:45;;;;;;;5.20;4.80;;;18.40;99.90;;;;;;5028324;28;20175;-64
2022/04/30 10:56:12;;;;;;;5.47;4.90;;;18.70;99.90;;;;;;5032429;28;20261;-65
2022/04/30 10:58:38;;;;;;;5.37;4.87;;;18.40;99.90;;;;;;5032398;28;20298;-65
2022/04/30 11:01:11;;;;;;;6.23;5.13;;;18.50;99.90;;;;;;5032493;28;20163;-63
2022/04/30 11:03:36;;;;;;;6.23;5.33;;;18.60;99.90;;;;;;5031884;28;20649;-64
2022/04/30 11:06:02;;;;;;;6.47;5.20;;;19.10;99.90;;;;;;5032063;28;20199;-64
2022/04/30 11:08:27;;;;;;;5.33;4.83;;;19.20;99.90;;;;;;5032441;28;20584;-67
2022/04/30 11:10:55;;;;;;;5.07;4.67;;;19.50;99.90;;;;;;5032481;28;20197;-64
2022/04/30 11:13:21;;;;;;;6.50;5.35;;;20.10;99.90;;;;;;5032218;28;20226;-63
2022/04/30 11:15:47;;;;;;;5.50;5.00;;;20.00;99.90;;;;;;5031918;28;20226;-63
2022/04/30 11:18:17;;;;;;;5.93;5.43;;;19.90;99.90;;;;;;5031948;28;20194;-64
2022/04/30 11:20:42;;;;;;;5.73;4.80;;;19.70;99.90;;;;;;5011945;28;20263;-63
2022/04/30 11:23:08;;;;;;;5.60;5.20;;;19.10;99.90;;;;;;5013327;28;20255;-64
2022/04/30 11:25:36;;;;;;;5.60;5.07;;;19.00;99.90;;;;;;5031541;28;20203;-63
2022/04/30 11:28:09;;;;;;;6.07;5.10;;;18.80;99.90;;;;;;5031874;28;20164;-64
2022/04/30 11:30:38;;;;;;;6.70;5.67;;;18.70;99.90;;;;;;5012013;28;20191;-63
2022/04/30 11:33:07;;;;;;;5.87;5.27;;;18.90;99.90;;;;;;5012057;28;20176;-63
2022/04/30 11:35:34;;;;;;;5.05;4.65;;;19.60;99.90;;;;;;5030977;28;20317;-64
2022/04/30 11:37:59;;;;;;;5.57;4.80;;;19.90;99.90;;;;;;5031619;28;20672;-63
2022/04/30 11:40:26;;;;;;;7.45;4.65;;;19.90;99.90;;;;;;5031753;28;20202;-64
2022/04/30 11:43:05;;;;;;;5.10;4.70;;;20.60;99.90;;;;;;5031644;28;20167;-64
2022/04/30 11:45:32;;;;;;;4.85;4.47;;;21.20;99.90;;;;;;5031277;28;20203;-64
2022/04/30 11:47:58;;;;;;;8.18;4.90;;;21.60;99.90;;;;;;5030292;28;20183;-63
2022/04/30 11:50:25;;;;;;;5.70;5.10;;;21.30;99.90;;;;;;5031885;28;20195;-63
2022/04/30 11:52:52;;;;;;;6.03;5.23;;;20.60;99.90;;;;;;5031308;28;20175;-64
2022/04/30 11:55:20;;;;;;;6.30;5.63;;;20.30;99.70;;;;;;5026948;28;20194;-63
2022/04/30 11:57:47;;;;;;;6.33;5.80;;;20.30;99.90;;;;;;5031508;28;20263;-63
2022/04/30 12:00:14;;;;;;;6.23;5.63;;;20.00;99.90;;;;;;5031219;28;20466;-64
2022/04/30 12:02:41;;;;;;;7.80;5.63;;;19.60;99.80;;;;;;5031185;28;20203;-63
2022/04/30 12:05:08;;;;;;;7.93;5.70;;;19.10;99.90;;;;;;5030665;28;20207;-66
2022/04/30 12:07:42;;;;;;;6.30;5.70;;;18.50;99.90;;;;;;5029841;28;20182;-64
2022/04/30 12:10:26;;;;;;;6.30;5.20;;;18.40;99.90;;;;;;5031597;28;20176;-64
2022/04/30 12:12:52;;;;;;;6.87;5.57;;;18.90;99.90;;;;;;5031628;28;20191;-64
2022/04/30 12:15:25;;;;;;;9.03;6.50;;;19.90;99.90;;;;;;5031558;28;20172;-63
2022/04/30 12:26:24;;;;;;;6.10;5.40;;;17.80;99.90;;;;;;5035362;28;20206;-64
2022/04/30 12:28:50;;;;;;;6.20;5.60;;;17.30;99.90;;;;;;5028120;28;20180;-64
2022/04/30 12:31:16;;;;;;;6.20;5.60;;;17.60;99.90;;;;;;5014361;28;20215;-63
2022/04/30 12:33:48;;;;;;;6.80;5.60;;;18.30;99.90;;;;;;5021997;28;20186;-64
2022/04/30 12:36:14;;;;;;;6.83;5.90;;;18.80;99.90;;;;;;5034839;28;20591;-63
2022/04/30 12:38:50;;;;;;;9.07;5.73;;;19.00;99.90;;;;;;5034691;28;20180;-64
2022/04/30 12:41:16;;;;;;;5.93;5.33;;;18.80;99.90;;;;;;5034859;28;20179;-64
2022/04/30 12:43:41;;;;;;;6.07;5.50;;;19.00;99.90;;;;;;5034907;28;20178;-63
2022/04/30 12:46:08;;;;;;;6.27;5.67;;;19.40;99.90;;;;;;5034601;28;20275;-63
2022/04/30 12:48:34;;;;;;;7.93;5.60;;;19.40;99.90;;;;;;5034932;28;20179;-64
2022/04/30 12:51:00;;;;;;;5.80;5.30;;;19.50;99.90;;;;;;5033416;28;20194;-64
2022/04/30 12:53:25;;;;;;;6.43;5.70;;;20.00;99.90;;;;;;5034808;28;20172;-65
2022/04/30 12:55:54;;;;;;;5.65;5.05;;;20.20;99.90;;;;;;5018581;28;20244;-65
2022/04/30 12:58:20;;;;;;;6.47;5.00;;;20.20;99.90;;;;;;5033878;28;20190;-65
2022/04/30 13:00:46;;;;;;;5.45;4.85;;;20.30;99.90;;;;;;5035028;28;20571;-65
2022/04/30 13:03:11;;;;;;;4.78;4.35;;;21.00;99.90;;;;;;5034751;28;20172;-65
2022/04/30 13:05:37;;;;;;;4.57;4.15;;;21.70;98.80;;;;;;5033924;28;20262;-65
2022/04/30 13:08:03;;;;;;;5.07;4.68;;;22.50;99.90;;;;;;5034825;28;20229;-65
2022/04/30 13:13:32;;;;;;;5.63;4.80;;;22.30;99.90;;;;;;5034122;28;20210;-63
2022/04/30 13:16:09;;;;;;;5.50;4.95;;;21.90;99.20;;;;;;5034100;28;20290;-64
2022/04/30 13:18:36;;;;;;;5.53;5.00;;;21.20;98.90;;;;;;5034461;28;20180;-63
2022/04/30 13:21:03;;;;;;;6.27;5.57;;;20.60;97.00;;;;;;5034307;28;20180;-64
2022/04/30 13:23:29;;;;;;;7.63;5.80;;;20.30;97.80;;;;;;5034726;28;20191;-64
2022/04/30 13:25:55;;;;;;;11.73;6.83;;;20.30;99.90;;;;;;5033424;28;20207;-65
2022/04/30 13:28:20;;;;;;;6.53;5.30;;;20.10;98.40;;;;;;5033154;28;20229;-66
2022/04/30 13:30:46;;;;;;;5.47;4.97;;;20.00;97.10;;;;;;5034069;28;20187;-65
2022/04/30 13:33:11;;;;;;;5.30;4.90;;;20.10;99.80;;;;;;5034143;28;20567;-66